sensor_id;sensor_type;location;lat;lon;timestamp;P1;durP1;ratioP1;P2;durP2;ratioP2
72920;SDS011;61064;51.654;5.476;2022-12-22T00:02:27;18.38;;;8.52;;
72920;SDS011;61064;51.654;5.476;2022-12-22T00:05:15;17.13;;;8.20;;
72920;SDS011;61064;51.654;5.476;2022-12-22T00:08:03;19.20;;;8.55;;
72920;SDS011;61064;51.654;5.476;2022-12-22T00:10:48;16.60;;;8.57;;
72920;SDS011;61064;51.654;5.476;2022-12-22T00:13:34;17.17;;;8.23;;
72920;SDS011;61064;51.654;5.476;2022-12-22T00:16:18;17.75;;;8.50;;
72920;SDS011;61064;51.654;5.476;2022-12-22T00:19:09;16.60;;;7.88;;
72920;SDS011;61064;51.654;5.476;2022-12-22T00:22:00;15.57;;;8.13;;
72920;SDS011;61064;51.654;5.476;2022-12-22T00:24:46;16.88;;;8.23;;
72920;SDS011;61064;51.654;5.476;2022-12-22T00:27:33;16.97;;;8.90;;
72920;SDS011;61064;51.654;5.476;2022-12-22T00:30:25;17.23;;;8.90;;
72920;SDS011;61064;51.654;5.476;2022-12-22T00:33:10;17.25;;;8.50;;
72920;SDS011;61064;51.654;5.476;2022-12-22T00:35:56;15.43;;;7.82;;
72920;SDS011;61064;51.654;5.476;2022-12-22T00:38:40;14.93;;;8.02;;
72920;SDS011;61064;51.654;5.476;2022-12-22T00:41:24;14.37;;;7.60;;
72920;SDS011;61064;51.654;5.476;2022-12-22T00:44:09;16.90;;;8.65;;
72920;SDS011;61064;51.654;5.476;2022-12-22T00:46:52;16.55;;;8.52;;
72920;SDS011;61064;51.654;5.476;2022-12-22T00:49:40;17.15;;;8.18;;
72920;SDS011;61064;51.654;5.476;2022-12-22T00:52:28;16.20;;;8.13;;
72920;SDS011;61064;51.654;5.476;2022-12-22T00:55:13;17.90;;;8.80;;
72920;SDS011;61064;51.654;5.476;2022-12-22T00:57:58;17.90;;;8.85;;
72920;SDS011;61064;51.654;5.476;2022-12-22T01:00:45;17.85;;;8.60;;
72920;SDS011;61064;51.654;5.476;2022-12-22T01:03:29;17.25;;;7.78;;
72920;SDS011;61064;51.654;5.476;2022-12-22T01:06:14;17.35;;;7.70;;
72920;SDS011;61064;51.654;5.476;2022-12-22T01:08:58;18.43;;;7.77;;
72920;SDS011;61064;51.654;5.476;2022-12-22T01:11:42;15.32;;;7.47;;
72920;SDS011;61064;51.654;5.476;2022-12-22T01:14:27;17.25;;;8.38;;
72920;SDS011;61064;51.654;5.476;2022-12-22T01:17:10;17.63;;;7.95;;
72920;SDS011;61064;51.654;5.476;2022-12-22T01:19:57;16.92;;;7.95;;
72920;SDS011;61064;51.654;5.476;2022-12-22T01:22:41;15.30;;;7.57;;
72920;SDS011;61064;51.654;5.476;2022-12-22T01:25:25;17.55;;;7.68;;
72920;SDS011;61064;51.654;5.476;2022-12-22T01:28:13;16.40;;;7.57;;
72920;SDS011;61064;51.654;5.476;2022-12-22T01:34:14;14.48;;;7.32;;
72920;SDS011;61064;51.654;5.476;2022-12-22T01:36:59;15.07;;;7.60;;
72920;SDS011;61064;51.654;5.476;2022-12-22T01:39:42;15.80;;;7.60;;
72920;SDS011;61064;51.654;5.476;2022-12-22T01:42:27;16.95;;;7.75;;
72920;SDS011;61064;51.654;5.476;2022-12-22T01:45:24;15.77;;;7.60;;
72920;SDS011;61064;51.654;5.476;2022-12-22T01:48:17;17.30;;;7.75;;
72920;SDS011;61064;51.654;5.476;2022-12-22T01:51:08;16.33;;;7.77;;
72920;SDS011;61064;51.654;5.476;2022-12-22T01:53:56;15.07;;;7.47;;
72920;SDS011;61064;51.654;5.476;2022-12-22T01:56:42;16.40;;;7.00;;
72920;SDS011;61064;51.654;5.476;2022-12-22T01:59:28;16.67;;;7.43;;
72920;SDS011;61064;51.654;5.476;2022-12-22T02:02:12;17.02;;;7.60;;
72920;SDS011;61064;51.654;5.476;2022-12-22T02:04:59;15.07;;;7.90;;
72920;SDS011;61064;51.654;5.476;2022-12-22T02:07:50;16.48;;;7.38;;
72920;SDS011;61064;51.654;5.476;2022-12-22T02:13:52;15.55;;;7.25;;
72920;SDS011;61064;51.654;5.476;2022-12-22T02:16:57;14.57;;;7.55;;
72920;SDS011;61064;51.654;5.476;2022-12-22T02:23:00;18.08;;;7.20;;
72920;SDS011;61064;51.654;5.476;2022-12-22T02:25:53;16.33;;;7.47;;
72920;SDS011;61064;51.654;5.476;2022-12-22T02:28:58;16.02;;;7.30;;
72920;SDS011;61064;51.654;5.476;2022-12-22T02:31:42;15.75;;;7.45;;
72920;SDS011;61064;51.654;5.476;2022-12-22T02:34:26;15.80;;;7.37;;
72920;SDS011;61064;51.654;5.476;2022-12-22T02:50:05;16.30;;;7.90;;
72920;SDS011;61064;51.654;5.476;2022-12-22T02:52:51;16.73;;;7.15;;
72920;SDS011;61064;51.654;5.476;2022-12-22T02:55:37;17.75;;;7.85;;
72920;SDS011;61064;51.654;5.476;2022-12-22T02:58:21;17.65;;;7.82;;
72920;SDS011;61064;51.654;5.476;2022-12-22T03:01:06;18.23;;;7.70;;
72920;SDS011;61064;51.654;5.476;2022-12-22T03:03:52;19.00;;;7.87;;
72920;SDS011;61064;51.654;5.476;2022-12-22T03:06:36;20.27;;;8.18;;
72920;SDS011;61064;51.654;5.476;2022-12-22T03:09:20;16.92;;;8.40;;
72920;SDS011;61064;51.654;5.476;2022-12-22T03:12:04;17.60;;;8.10;;
72920;SDS011;61064;51.654;5.476;2022-12-22T03:14:49;20.10;;;8.32;;
72920;SDS011;61064;51.654;5.476;2022-12-22T03:17:32;15.77;;;7.67;;
72920;SDS011;61064;51.654;5.476;2022-12-22T03:20:16;16.85;;;8.02;;
72920;SDS011;61064;51.654;5.476;2022-12-22T03:23:04;21.10;;;8.13;;
72920;SDS011;61064;51.654;5.476;2022-12-22T03:25:49;20.20;;;8.35;;
72920;SDS011;61064;51.654;5.476;2022-12-22T03:28:24;19.60;;;8.25;;
72920;SDS011;61064;51.654;5.476;2022-12-22T03:30:58;17.37;;;7.90;;
72920;SDS011;61064;51.654;5.476;2022-12-22T03:33:28;20.75;;;8.40;;
72920;SDS011;61064;51.654;5.476;2022-12-22T03:35:54;22.27;;;8.48;;
72920;SDS011;61064;51.654;5.476;2022-12-22T03:38:19;21.85;;;7.95;;
72920;SDS011;61064;51.654;5.476;2022-12-22T03:40:45;21.47;;;7.90;;
72920;SDS011;61064;51.654;5.476;2022-12-22T03:43:12;18.27;;;7.95;;
72920;SDS011;61064;51.654;5.476;2022-12-22T03:45:57;19.63;;;8.43;;
72920;SDS011;61064;51.654;5.476;2022-12-22T03:48:42;17.60;;;8.13;;
72920;SDS011;61064;51.654;5.476;2022-12-22T03:51:09;18.40;;;8.50;;
72920;SDS011;61064;51.654;5.476;2022-12-22T03:53:35;19.48;;;8.07;;
72920;SDS011;61064;51.654;5.476;2022-12-22T03:56:01;18.23;;;7.53;;
72920;SDS011;61064;51.654;5.476;2022-12-22T03:58:27;19.00;;;8.27;;
72920;SDS011;61064;51.654;5.476;2022-12-22T04:01:03;19.23;;;8.00;;
72920;SDS011;61064;51.654;5.476;2022-12-22T04:03:32;22.33;;;8.23;;
72920;SDS011;61064;51.654;5.476;2022-12-22T04:05:57;20.83;;;8.25;;
72920;SDS011;61064;51.654;5.476;2022-12-22T04:08:23;19.13;;;7.63;;
72920;SDS011;61064;51.654;5.476;2022-12-22T04:10:48;21.17;;;7.77;;
72920;SDS011;61064;51.654;5.476;2022-12-22T04:13:32;19.20;;;8.20;;
72920;SDS011;61064;51.654;5.476;2022-12-22T04:15:58;22.60;;;8.05;;
72920;SDS011;61064;51.654;5.476;2022-12-22T04:18:23;20.53;;;8.60;;
72920;SDS011;61064;51.654;5.476;2022-12-22T04:20:49;19.90;;;7.27;;
72920;SDS011;61064;51.654;5.476;2022-12-22T04:23:14;19.97;;;8.20;;
72920;SDS011;61064;51.654;5.476;2022-12-22T04:25:41;21.30;;;8.43;;
72920;SDS011;61064;51.654;5.476;2022-12-22T04:28:06;18.33;;;7.67;;
72920;SDS011;61064;51.654;5.476;2022-12-22T04:30:32;17.92;;;8.00;;
72920;SDS011;61064;51.654;5.476;2022-12-22T04:32:57;19.73;;;8.10;;
72920;SDS011;61064;51.654;5.476;2022-12-22T04:35:23;17.45;;;7.72;;
72920;SDS011;61064;51.654;5.476;2022-12-22T04:37:49;21.80;;;7.67;;
72920;SDS011;61064;51.654;5.476;2022-12-22T04:40:16;33.25;;;8.82;;
72920;SDS011;61064;51.654;5.476;2022-12-22T04:42:41;21.57;;;8.23;;
72920;SDS011;61064;51.654;5.476;2022-12-22T04:45:07;17.83;;;7.95;;
72920;SDS011;61064;51.654;5.476;2022-12-22T04:47:33;21.37;;;8.00;;
72920;SDS011;61064;51.654;5.476;2022-12-22T04:49:59;18.30;;;7.68;;
72920;SDS011;61064;51.654;5.476;2022-12-22T04:52:25;16.98;;;7.57;;
72920;SDS011;61064;51.654;5.476;2022-12-22T04:54:51;16.67;;;7.57;;
72920;SDS011;61064;51.654;5.476;2022-12-22T04:57:17;16.80;;;7.40;;
72920;SDS011;61064;51.654;5.476;2022-12-22T04:59:42;20.47;;;7.90;;
72920;SDS011;61064;51.654;5.476;2022-12-22T05:02:08;17.80;;;7.37;;
72920;SDS011;61064;51.654;5.476;2022-12-22T05:04:35;30.13;;;7.93;;
72920;SDS011;61064;51.654;5.476;2022-12-22T05:07:01;30.55;;;7.53;;
72920;SDS011;61064;51.654;5.476;2022-12-22T05:09:27;18.83;;;7.63;;
72920;SDS011;61064;51.654;5.476;2022-12-22T05:11:53;24.57;;;7.93;;
72920;SDS011;61064;51.654;5.476;2022-12-22T05:14:18;22.65;;;7.43;;
72920;SDS011;61064;51.654;5.476;2022-12-22T05:16:43;17.47;;;8.30;;
72920;SDS011;61064;51.654;5.476;2022-12-22T05:19:09;32.47;;;8.97;;
72920;SDS011;61064;51.654;5.476;2022-12-22T05:21:34;50.47;;;8.77;;
72920;SDS011;61064;51.654;5.476;2022-12-22T05:24:00;24.88;;;8.10;;
72920;SDS011;61064;51.654;5.476;2022-12-22T05:26:25;41.40;;;8.23;;
72920;SDS011;61064;51.654;5.476;2022-12-22T05:28:51;73.83;;;9.00;;
72920;SDS011;61064;51.654;5.476;2022-12-22T05:31:18;33.95;;;8.63;;
72920;SDS011;61064;51.654;5.476;2022-12-22T05:33:45;38.47;;;8.63;;
72920;SDS011;61064;51.654;5.476;2022-12-22T05:36:11;23.63;;;8.07;;
72920;SDS011;61064;51.654;5.476;2022-12-22T05:38:37;55.42;;;9.32;;
72920;SDS011;61064;51.654;5.476;2022-12-22T05:41:04;23.83;;;8.13;;
72920;SDS011;61064;51.654;5.476;2022-12-22T05:43:31;188.00;;;12.30;;
72920;SDS011;61064;51.654;5.476;2022-12-22T05:45:59;70.47;;;9.73;;
72920;SDS011;61064;51.654;5.476;2022-12-22T05:48:26;80.10;;;9.55;;
72920;SDS011;61064;51.654;5.476;2022-12-22T05:50:51;60.73;;;10.47;;
72920;SDS011;61064;51.654;5.476;2022-12-22T05:53:17;122.10;;;10.77;;
72920;SDS011;61064;51.654;5.476;2022-12-22T05:55:42;119.73;;;11.17;;
72920;SDS011;61064;51.654;5.476;2022-12-22T05:58:08;97.83;;;10.40;;
72920;SDS011;61064;51.654;5.476;2022-12-22T06:00:33;37.20;;;9.73;;
72920;SDS011;61064;51.654;5.476;2022-12-22T06:02:58;45.43;;;9.60;;
72920;SDS011;61064;51.654;5.476;2022-12-22T06:05:24;40.17;;;9.73;;
72920;SDS011;61064;51.654;5.476;2022-12-22T06:07:50;35.37;;;9.23;;
72920;SDS011;61064;51.654;5.476;2022-12-22T06:10:15;35.22;;;10.20;;
72920;SDS011;61064;51.654;5.476;2022-12-22T06:12:41;34.70;;;10.20;;
72920;SDS011;61064;51.654;5.476;2022-12-22T06:15:08;33.47;;;12.95;;
72920;SDS011;61064;51.654;5.476;2022-12-22T06:17:36;34.38;;;11.02;;
72920;SDS011;61064;51.654;5.476;2022-12-22T06:20:02;29.83;;;10.13;;
72920;SDS011;61064;51.654;5.476;2022-12-22T06:22:29;33.42;;;10.40;;
72920;SDS011;61064;51.654;5.476;2022-12-22T06:24:54;30.27;;;10.03;;
72920;SDS011;61064;51.654;5.476;2022-12-22T06:27:20;30.20;;;9.50;;
72920;SDS011;61064;51.654;5.476;2022-12-22T06:29:48;38.07;;;11.40;;
72920;SDS011;61064;51.654;5.476;2022-12-22T06:32:13;34.55;;;10.68;;
72920;SDS011;61064;51.654;5.476;2022-12-22T06:34:39;35.83;;;10.63;;
72920;SDS011;61064;51.654;5.476;2022-12-22T06:37:05;33.10;;;10.63;;
72920;SDS011;61064;51.654;5.476;2022-12-22T06:39:30;35.95;;;11.43;;
72920;SDS011;61064;51.654;5.476;2022-12-22T06:41:56;39.43;;;11.77;;
72920;SDS011;61064;51.654;5.476;2022-12-22T06:44:40;41.13;;;11.68;;
72920;SDS011;61064;51.654;5.476;2022-12-22T06:47:05;41.43;;;11.70;;
72920;SDS011;61064;51.654;5.476;2022-12-22T06:49:31;43.00;;;11.55;;
72920;SDS011;61064;51.654;5.476;2022-12-22T06:51:56;42.00;;;11.97;;
72920;SDS011;61064;51.654;5.476;2022-12-22T06:54:21;42.77;;;11.83;;
72920;SDS011;61064;51.654;5.476;2022-12-22T06:56:47;50.73;;;12.33;;
72920;SDS011;61064;51.654;5.476;2022-12-22T06:59:12;43.92;;;12.27;;
72920;SDS011;61064;51.654;5.476;2022-12-22T07:01:38;49.70;;;14.10;;
72920;SDS011;61064;51.654;5.476;2022-12-22T07:04:04;47.23;;;12.63;;
72920;SDS011;61064;51.654;5.476;2022-12-22T07:06:29;55.55;;;13.60;;
72920;SDS011;61064;51.654;5.476;2022-12-22T07:08:54;58.67;;;14.00;;
72920;SDS011;61064;51.654;5.476;2022-12-22T07:11:20;57.63;;;14.00;;
72920;SDS011;61064;51.654;5.476;2022-12-22T07:13:46;51.20;;;13.50;;
72920;SDS011;61064;51.654;5.476;2022-12-22T07:16:12;51.08;;;13.63;;
72920;SDS011;61064;51.654;5.476;2022-12-22T07:18:39;54.83;;;13.63;;
72920;SDS011;61064;51.654;5.476;2022-12-22T07:21:07;56.08;;;13.65;;
72920;SDS011;61064;51.654;5.476;2022-12-22T07:23:34;56.53;;;14.60;;
72920;SDS011;61064;51.654;5.476;2022-12-22T07:26:00;54.53;;;14.75;;
72920;SDS011;61064;51.654;5.476;2022-12-22T07:28:26;53.13;;;14.33;;
72920;SDS011;61064;51.654;5.476;2022-12-22T07:30:52;50.42;;;13.50;;
72920;SDS011;61064;51.654;5.476;2022-12-22T07:33:18;58.80;;;14.23;;
72920;SDS011;61064;51.654;5.476;2022-12-22T07:35:44;54.10;;;14.27;;
72920;SDS011;61064;51.654;5.476;2022-12-22T07:38:10;54.53;;;14.80;;
72920;SDS011;61064;51.654;5.476;2022-12-22T07:40:36;56.10;;;13.80;;
72920;SDS011;61064;51.654;5.476;2022-12-22T07:43:01;59.92;;;14.45;;
72920;SDS011;61064;51.654;5.476;2022-12-22T07:45:27;54.70;;;14.93;;
72920;SDS011;61064;51.654;5.476;2022-12-22T07:47:59;52.13;;;14.30;;
72920;SDS011;61064;51.654;5.476;2022-12-22T07:50:26;53.05;;;14.52;;
72920;SDS011;61064;51.654;5.476;2022-12-22T07:52:53;53.85;;;15.07;;
72920;SDS011;61064;51.654;5.476;2022-12-22T07:55:20;55.17;;;15.95;;
72920;SDS011;61064;51.654;5.476;2022-12-22T07:57:46;53.25;;;14.07;;
72920;SDS011;61064;51.654;5.476;2022-12-22T08:00:12;49.17;;;13.77;;
72920;SDS011;61064;51.654;5.476;2022-12-22T08:02:38;46.05;;;13.90;;
72920;SDS011;61064;51.654;5.476;2022-12-22T08:05:04;50.20;;;14.63;;
72920;SDS011;61064;51.654;5.476;2022-12-22T08:07:30;43.22;;;12.70;;
72920;SDS011;61064;51.654;5.476;2022-12-22T08:09:56;47.75;;;14.15;;
72920;SDS011;61064;51.654;5.476;2022-12-22T08:12:22;45.50;;;13.63;;
72920;SDS011;61064;51.654;5.476;2022-12-22T08:14:48;47.78;;;13.50;;
72920;SDS011;61064;51.654;5.476;2022-12-22T08:17:13;45.07;;;13.77;;
72920;SDS011;61064;51.654;5.476;2022-12-22T08:19:39;45.30;;;13.73;;
72920;SDS011;61064;51.654;5.476;2022-12-22T08:22:04;44.00;;;13.25;;
72920;SDS011;61064;51.654;5.476;2022-12-22T08:24:30;45.57;;;13.27;;
72920;SDS011;61064;51.654;5.476;2022-12-22T08:26:57;43.35;;;12.93;;
72920;SDS011;61064;51.654;5.476;2022-12-22T08:29:35;40.63;;;13.60;;
72920;SDS011;61064;51.654;5.476;2022-12-22T08:32:05;37.38;;;11.30;;
72920;SDS011;61064;51.654;5.476;2022-12-22T08:34:31;34.78;;;11.40;;
72920;SDS011;61064;51.654;5.476;2022-12-22T08:36:57;36.07;;;11.43;;
72920;SDS011;61064;51.654;5.476;2022-12-22T08:39:25;36.00;;;11.25;;
72920;SDS011;61064;51.654;5.476;2022-12-22T08:41:54;33.08;;;11.30;;
72920;SDS011;61064;51.654;5.476;2022-12-22T08:46:45;34.73;;;11.30;;
72920;SDS011;61064;51.654;5.476;2022-12-22T08:49:11;34.95;;;11.15;;
72920;SDS011;61064;51.654;5.476;2022-12-22T08:51:37;35.28;;;11.52;;
72920;SDS011;61064;51.654;5.476;2022-12-22T08:54:02;31.17;;;10.80;;
72920;SDS011;61064;51.654;5.476;2022-12-22T08:56:28;34.97;;;11.97;;
72920;SDS011;61064;51.654;5.476;2022-12-22T08:58:55;37.42;;;11.80;;
72920;SDS011;61064;51.654;5.476;2022-12-22T09:01:21;39.77;;;12.70;;
72920;SDS011;61064;51.654;5.476;2022-12-22T09:03:51;39.65;;;12.10;;
72920;SDS011;61064;51.654;5.476;2022-12-22T09:06:19;36.53;;;11.30;;
72920;SDS011;61064;51.654;5.476;2022-12-22T09:08:46;39.00;;;11.95;;
72920;SDS011;61064;51.654;5.476;2022-12-22T09:11:12;42.75;;;11.88;;
72920;SDS011;61064;51.654;5.476;2022-12-22T09:13:38;36.83;;;11.60;;
72920;SDS011;61064;51.654;5.476;2022-12-22T09:16:05;37.72;;;11.48;;
72920;SDS011;61064;51.654;5.476;2022-12-22T09:18:31;34.17;;;12.40;;
72920;SDS011;61064;51.654;5.476;2022-12-22T09:20:56;33.03;;;11.47;;
72920;SDS011;61064;51.654;5.476;2022-12-22T09:23:22;34.60;;;11.30;;
72920;SDS011;61064;51.654;5.476;2022-12-22T09:25:47;36.20;;;12.57;;
72920;SDS011;61064;51.654;5.476;2022-12-22T09:28:12;34.13;;;11.33;;
72920;SDS011;61064;51.654;5.476;2022-12-22T09:30:38;36.40;;;11.50;;
72920;SDS011;61064;51.654;5.476;2022-12-22T09:33:03;36.93;;;11.77;;
72920;SDS011;61064;51.654;5.476;2022-12-22T09:35:28;36.77;;;12.23;;
72920;SDS011;61064;51.654;5.476;2022-12-22T09:37:54;42.87;;;12.33;;
72920;SDS011;61064;51.654;5.476;2022-12-22T09:40:19;43.25;;;11.93;;
72920;SDS011;61064;51.654;5.476;2022-12-22T09:42:46;40.77;;;12.10;;
72920;SDS011;61064;51.654;5.476;2022-12-22T09:45:13;39.42;;;12.32;;
72920;SDS011;61064;51.654;5.476;2022-12-22T09:47:44;41.95;;;13.32;;
72920;SDS011;61064;51.654;5.476;2022-12-22T09:50:21;41.47;;;12.70;;
72920;SDS011;61064;51.654;5.476;2022-12-22T09:57:49;41.20;;;13.13;;
72920;SDS011;61064;51.654;5.476;2022-12-22T10:00:17;46.13;;;13.10;;
72920;SDS011;61064;51.654;5.476;2022-12-22T10:05:35;35.50;;;11.93;;
72920;SDS011;61064;51.654;5.476;2022-12-22T10:08:11;42.45;;;12.45;;
72920;SDS011;61064;51.654;5.476;2022-12-22T10:10:45;38.63;;;12.82;;
72920;SDS011;61064;51.654;5.476;2022-12-22T10:13:17;40.13;;;13.32;;
72920;SDS011;61064;51.654;5.476;2022-12-22T10:15:43;37.58;;;12.70;;
72920;SDS011;61064;51.654;5.476;2022-12-22T10:18:13;37.37;;;11.80;;
72920;SDS011;61064;51.654;5.476;2022-12-22T10:20:41;36.47;;;12.38;;
72920;SDS011;61064;51.654;5.476;2022-12-22T10:25:41;40.53;;;13.45;;
72920;SDS011;61064;51.654;5.476;2022-12-22T10:28:29;40.38;;;13.60;;
72920;SDS011;61064;51.654;5.476;2022-12-22T10:31:53;35.40;;;13.37;;
72920;SDS011;61064;51.654;5.476;2022-12-22T10:33:54;36.00;;;13.30;;
72920;SDS011;61064;51.654;5.476;2022-12-22T10:36:25;34.97;;;12.68;;
72920;SDS011;61064;51.654;5.476;2022-12-22T10:39:06;29.10;;;11.10;;
72920;SDS011;61064;51.654;5.476;2022-12-22T10:41:34;30.13;;;11.90;;
72920;SDS011;61064;51.654;5.476;2022-12-22T10:44:09;29.83;;;11.67;;
72920;SDS011;61064;51.654;5.476;2022-12-22T10:46:45;30.90;;;11.27;;
72920;SDS011;61064;51.654;5.476;2022-12-22T10:49:14;28.80;;;11.70;;
72920;SDS011;61064;51.654;5.476;2022-12-22T10:51:54;32.83;;;10.93;;
72920;SDS011;61064;51.654;5.476;2022-12-22T10:54:24;28.95;;;11.20;;
72920;SDS011;61064;51.654;5.476;2022-12-22T11:04:48;25.30;;;9.10;;
72920;SDS011;61064;51.654;5.476;2022-12-22T11:07:15;24.70;;;8.38;;
72920;SDS011;61064;51.654;5.476;2022-12-22T11:09:41;20.07;;;8.10;;
72920;SDS011;61064;51.654;5.476;2022-12-22T11:12:18;22.05;;;8.38;;
72920;SDS011;61064;51.654;5.476;2022-12-22T11:15:05;23.25;;;8.45;;
72920;SDS011;61064;51.654;5.476;2022-12-22T11:17:57;22.90;;;8.13;;
72920;SDS011;61064;51.654;5.476;2022-12-22T11:20:34;24.40;;;8.23;;
72920;SDS011;61064;51.654;5.476;2022-12-22T11:30:47;23.42;;;7.82;;
72920;SDS011;61064;51.654;5.476;2022-12-22T11:50:55;23.47;;;8.40;;
72920;SDS011;61064;51.654;5.476;2022-12-22T11:53:35;21.83;;;8.73;;
72920;SDS011;61064;51.654;5.476;2022-12-22T11:56:26;24.67;;;9.90;;
72920;SDS011;61064;51.654;5.476;2022-12-22T12:04:15;28.73;;;12.07;;
72920;SDS011;61064;51.654;5.476;2022-12-22T12:06:58;29.27;;;13.38;;
72920;SDS011;61064;51.654;5.476;2022-12-22T12:09:35;30.40;;;12.93;;
72920;SDS011;61064;51.654;5.476;2022-12-22T12:15:06;33.38;;;14.20;;
72920;SDS011;61064;51.654;5.476;2022-12-22T12:26:40;30.92;;;13.68;;
72920;SDS011;61064;51.654;5.476;2022-12-22T12:29:05;29.15;;;13.00;;
72920;SDS011;61064;51.654;5.476;2022-12-22T12:31:42;27.80;;;12.35;;
72920;SDS011;61064;51.654;5.476;2022-12-22T12:34:32;33.30;;;14.52;;
72920;SDS011;61064;51.654;5.476;2022-12-22T12:42:27;29.17;;;12.68;;
72920;SDS011;61064;51.654;5.476;2022-12-22T12:44:56;25.70;;;11.75;;
72920;SDS011;61064;51.654;5.476;2022-12-22T12:47:24;26.67;;;11.85;;
72920;SDS011;61064;51.654;5.476;2022-12-22T12:49:51;25.83;;;11.17;;
72920;SDS011;61064;51.654;5.476;2022-12-22T12:57:50;24.00;;;10.65;;
72920;SDS011;61064;51.654;5.476;2022-12-22T13:02:58;23.90;;;10.10;;
72920;SDS011;61064;51.654;5.476;2022-12-22T13:05:47;24.70;;;11.00;;
72920;SDS011;61064;51.654;5.476;2022-12-22T13:15:45;24.57;;;11.30;;
72920;SDS011;61064;51.654;5.476;2022-12-22T13:21:00;24.00;;;11.97;;
72920;SDS011;61064;51.654;5.476;2022-12-22T13:23:31;24.80;;;11.25;;
72920;SDS011;61064;51.654;5.476;2022-12-22T13:26:08;24.70;;;11.65;;
72920;SDS011;61064;51.654;5.476;2022-12-22T13:28:40;25.17;;;11.70;;
72920;SDS011;61064;51.654;5.476;2022-12-22T13:31:20;27.65;;;12.13;;
72920;SDS011;61064;51.654;5.476;2022-12-22T13:33:58;25.13;;;11.43;;
72920;SDS011;61064;51.654;5.476;2022-12-22T13:36:30;23.33;;;11.13;;
72920;SDS011;61064;51.654;5.476;2022-12-22T13:39:14;21.77;;;11.25;;
72920;SDS011;61064;51.654;5.476;2022-12-22T13:41:40;23.05;;;11.30;;
72920;SDS011;61064;51.654;5.476;2022-12-22T13:44:19;23.40;;;11.98;;
72920;SDS011;61064;51.654;5.476;2022-12-22T13:47:03;23.73;;;11.77;;
72920;SDS011;61064;51.654;5.476;2022-12-22T13:49:35;24.80;;;11.25;;
72920;SDS011;61064;51.654;5.476;2022-12-22T13:52:01;21.70;;;10.60;;
72920;SDS011;61064;51.654;5.476;2022-12-22T13:54:34;25.65;;;10.63;;
72920;SDS011;61064;51.654;5.476;2022-12-22T13:57:02;24.17;;;10.37;;
72920;SDS011;61064;51.654;5.476;2022-12-22T13:59:42;22.30;;;10.27;;
72920;SDS011;61064;51.654;5.476;2022-12-22T14:04:39;23.15;;;10.48;;
72920;SDS011;61064;51.654;5.476;2022-12-22T14:09:43;24.20;;;10.93;;
72920;SDS011;61064;51.654;5.476;2022-12-22T14:12:11;25.80;;;11.25;;
72920;SDS011;61064;51.654;5.476;2022-12-22T14:14:40;31.20;;;11.75;;
72920;SDS011;61064;51.654;5.476;2022-12-22T14:17:16;24.33;;;11.38;;
72920;SDS011;61064;51.654;5.476;2022-12-22T14:19:58;25.75;;;12.10;;
72920;SDS011;61064;51.654;5.476;2022-12-22T14:22:35;23.23;;;11.73;;
72920;SDS011;61064;51.654;5.476;2022-12-22T14:25:19;22.58;;;10.77;;
72920;SDS011;61064;51.654;5.476;2022-12-22T14:32:43;18.02;;;8.40;;
72920;SDS011;61064;51.654;5.476;2022-12-22T14:35:21;22.83;;;9.13;;
72920;SDS011;61064;51.654;5.476;2022-12-22T14:37:53;18.33;;;8.35;;
72920;SDS011;61064;51.654;5.476;2022-12-22T14:40:38;20.25;;;8.18;;
72920;SDS011;61064;51.654;5.476;2022-12-22T14:43:28;20.77;;;7.95;;
72920;SDS011;61064;51.654;5.476;2022-12-22T14:46:06;19.75;;;8.52;;
72920;SDS011;61064;51.654;5.476;2022-12-22T14:48:34;18.77;;;8.17;;
72920;SDS011;61064;51.654;5.476;2022-12-22T14:51:03;16.55;;;7.63;;
72920;SDS011;61064;51.654;5.476;2022-12-22T14:53:42;16.65;;;7.22;;
72920;SDS011;61064;51.654;5.476;2022-12-22T14:56:11;17.73;;;7.45;;
72920;SDS011;61064;51.654;5.476;2022-12-22T14:58:40;18.48;;;7.85;;
72920;SDS011;61064;51.654;5.476;2022-12-22T15:01:11;16.07;;;7.83;;
72920;SDS011;61064;51.654;5.476;2022-12-22T15:06:43;16.42;;;8.00;;
72920;SDS011;61064;51.654;5.476;2022-12-22T15:11:38;20.00;;;8.23;;
72920;SDS011;61064;51.654;5.476;2022-12-22T15:14:14;19.33;;;8.57;;
72920;SDS011;61064;51.654;5.476;2022-12-22T15:16:45;17.48;;;8.18;;
72920;SDS011;61064;51.654;5.476;2022-12-22T15:19:14;17.20;;;7.53;;
72920;SDS011;61064;51.654;5.476;2022-12-22T15:21:42;18.15;;;7.90;;
72920;SDS011;61064;51.654;5.476;2022-12-22T15:24:12;19.33;;;9.23;;
72920;SDS011;61064;51.654;5.476;2022-12-22T15:26:42;19.30;;;8.48;;
72920;SDS011;61064;51.654;5.476;2022-12-22T15:29:09;18.50;;;8.17;;
72920;SDS011;61064;51.654;5.476;2022-12-22T15:31:35;17.85;;;7.55;;
72920;SDS011;61064;51.654;5.476;2022-12-22T15:34:02;17.58;;;7.85;;
72920;SDS011;61064;51.654;5.476;2022-12-22T15:36:33;19.48;;;7.90;;
72920;SDS011;61064;51.654;5.476;2022-12-22T15:38:59;16.27;;;8.07;;
72920;SDS011;61064;51.654;5.476;2022-12-22T15:41:24;19.43;;;8.47;;
72920;SDS011;61064;51.654;5.476;2022-12-22T15:43:50;19.67;;;8.30;;
72920;SDS011;61064;51.654;5.476;2022-12-22T15:46:15;21.03;;;8.53;;
72920;SDS011;61064;51.654;5.476;2022-12-22T15:48:42;18.30;;;8.70;;
72920;SDS011;61064;51.654;5.476;2022-12-22T15:51:14;21.88;;;8.93;;
72920;SDS011;61064;51.654;5.476;2022-12-22T15:53:46;22.05;;;8.82;;
72920;SDS011;61064;51.654;5.476;2022-12-22T15:56:13;18.40;;;8.60;;
72920;SDS011;61064;51.654;5.476;2022-12-22T15:58:43;20.13;;;9.48;;
72920;SDS011;61064;51.654;5.476;2022-12-22T16:01:09;18.47;;;9.07;;
72920;SDS011;61064;51.654;5.476;2022-12-22T16:03:36;20.83;;;9.13;;
72920;SDS011;61064;51.654;5.476;2022-12-22T16:06:02;18.60;;;9.30;;
72920;SDS011;61064;51.654;5.476;2022-12-22T16:08:29;19.27;;;8.63;;
72920;SDS011;61064;51.654;5.476;2022-12-22T16:10:57;19.80;;;8.48;;
72920;SDS011;61064;51.654;5.476;2022-12-22T16:13:24;22.80;;;8.98;;
72920;SDS011;61064;51.654;5.476;2022-12-22T16:15:53;21.92;;;9.27;;
72920;SDS011;61064;51.654;5.476;2022-12-22T16:18:19;19.13;;;8.40;;
72920;SDS011;61064;51.654;5.476;2022-12-22T16:20:44;16.73;;;8.77;;
72920;SDS011;61064;51.654;5.476;2022-12-22T16:23:32;17.90;;;8.63;;
72920;SDS011;61064;51.654;5.476;2022-12-22T16:25:59;19.15;;;8.85;;
72920;SDS011;61064;51.654;5.476;2022-12-22T16:28:25;20.63;;;8.32;;
72920;SDS011;61064;51.654;5.476;2022-12-22T16:30:51;15.80;;;7.70;;
72920;SDS011;61064;51.654;5.476;2022-12-22T16:33:17;16.97;;;8.70;;
72920;SDS011;61064;51.654;5.476;2022-12-22T16:35:42;16.67;;;8.30;;
72920;SDS011;61064;51.654;5.476;2022-12-22T16:38:08;17.00;;;8.37;;
72920;SDS011;61064;51.654;5.476;2022-12-22T16:40:38;18.75;;;8.57;;
72920;SDS011;61064;51.654;5.476;2022-12-22T16:43:18;16.35;;;8.45;;
72920;SDS011;61064;51.654;5.476;2022-12-22T16:45:49;16.65;;;8.10;;
72920;SDS011;61064;51.654;5.476;2022-12-22T16:48:18;14.95;;;7.88;;
72920;SDS011;61064;51.654;5.476;2022-12-22T16:50:48;17.07;;;7.97;;
72920;SDS011;61064;51.654;5.476;2022-12-22T16:53:13;14.98;;;7.90;;
72920;SDS011;61064;51.654;5.476;2022-12-22T16:55:39;17.73;;;8.13;;
72920;SDS011;61064;51.654;5.476;2022-12-22T16:58:05;16.73;;;8.60;;
72920;SDS011;61064;51.654;5.476;2022-12-22T17:00:31;17.37;;;8.07;;
72920;SDS011;61064;51.654;5.476;2022-12-22T17:03:01;17.00;;;8.38;;
72920;SDS011;61064;51.654;5.476;2022-12-22T17:05:43;16.58;;;8.30;;